createdAt,value
2023-11-11T00:01:48.094Z,7.54
2023-11-11T00:04:06.871Z,7.54
2023-11-11T00:06:23.893Z,7.55
2023-11-11T00:08:40.889Z,7.55
2023-11-11T00:10:58.189Z,7.56
2023-11-11T00:13:15.158Z,7.59
2023-11-11T00:15:32.131Z,7.68
2023-11-11T00:17:49.161Z,7.62
2023-11-11T00:20:09.149Z,7.60
2023-11-11T00:22:26.082Z,7.57
2023-11-11T00:24:43.062Z,7.45
2023-11-11T00:27:00.047Z,7.37
2023-11-11T00:29:17.036Z,7.36
2023-11-11T00:31:35.874Z,7.28
2023-11-11T00:33:52.833Z,7.19
2023-11-11T00:36:09.897Z,7.19
2023-11-11T00:38:26.826Z,7.20
2023-11-11T00:40:43.736Z,7.24
2023-11-11T00:43:00.958Z,7.17
2023-11-11T00:45:17.897Z,7.08
2023-11-11T00:47:34.921Z,7.09
2023-11-11T00:49:55.031Z,7.05
2023-11-11T00:52:12.209Z,7.08
2023-11-11T00:54:29.446Z,7.06
2023-11-11T00:56:46.427Z,6.99
2023-11-11T00:59:03.393Z,6.97
2023-11-11T01:01:20.329Z,6.93
2023-11-11T01:03:38.030Z,6.94
2023-11-11T01:05:55.543Z,6.99
2023-11-11T01:08:13.693Z,6.99
2023-11-11T01:10:31.118Z,6.97
2023-11-11T01:12:48.062Z,6.93
2023-11-11T01:15:04.987Z,6.91
2023-11-11T01:17:21.933Z,6.91
2023-11-11T01:19:38.865Z,6.88
2023-11-11T01:21:55.766Z,6.85
2023-11-11T01:24:12.665Z,6.82
2023-11-11T01:26:29.632Z,6.83
2023-11-11T01:28:46.583Z,6.78
2023-11-11T01:31:03.527Z,6.79
2023-11-11T01:33:20.520Z,6.79
2023-11-11T01:35:37.912Z,6.78
2023-11-11T01:37:54.879Z,6.77
2023-11-11T01:40:11.801Z,6.79
2023-11-11T01:42:28.741Z,6.81
2023-11-11T01:44:45.737Z,6.79
2023-11-11T01:47:02.712Z,6.84
2023-11-11T01:49:19.681Z,6.84
2023-11-11T01:51:36.719Z,6.86
2023-11-11T01:53:53.944Z,6.96
2023-11-11T01:56:11.112Z,6.95
2023-11-11T01:58:28.028Z,6.95
2023-11-11T02:00:45.049Z,6.94
2023-11-11T02:03:02.604Z,6.93
2023-11-11T02:05:19.574Z,6.95
2023-11-11T02:07:36.524Z,6.96
2023-11-11T02:09:53.451Z,6.99
2023-11-11T02:12:10.913Z,6.95
2023-11-11T02:14:27.861Z,6.94
2023-11-11T02:16:45.276Z,6.95
2023-11-11T02:19:02.303Z,6.96
2023-11-11T02:21:19.482Z,6.95
2023-11-11T02:23:36.864Z,6.98
2023-11-11T02:25:54.067Z,6.97
2023-11-11T02:28:10.987Z,7.03
2023-11-11T02:30:28.629Z,7.08
2023-11-11T02:32:46.230Z,7.13
2023-11-11T02:35:03.250Z,7.17
2023-11-11T02:37:20.667Z,7.13
2023-11-11T02:39:37.750Z,7.13
2023-11-11T02:41:54.721Z,7.12
2023-11-11T02:44:11.883Z,7.11
2023-11-11T02:46:29.050Z,7.06
2023-11-11T02:48:46.679Z,7.06
2023-11-11T02:51:03.692Z,7.06
2023-11-11T02:53:20.744Z,7.02
2023-11-11T02:55:37.909Z,6.99
2023-11-11T02:57:55.031Z,6.97
2023-11-11T03:00:12.257Z,6.93
2023-11-11T03:02:29.697Z,6.88
2023-11-11T03:04:47.168Z,6.83
2023-11-11T03:07:04.433Z,6.86
2023-11-11T03:09:21.400Z,6.81
2023-11-11T03:11:38.713Z,6.82
2023-11-11T03:13:56.044Z,6.82
2023-11-11T03:16:13.063Z,6.91
2023-11-11T03:18:30.051Z,6.95
2023-11-11T03:20:46.978Z,6.94
2023-11-11T03:23:03.997Z,6.88
2023-11-11T03:25:20.981Z,6.84
2023-11-11T03:27:38.153Z,6.85
2023-11-11T03:29:57.542Z,6.83
2023-11-11T03:32:14.657Z,6.78
2023-11-11T03:34:32.175Z,6.68
2023-11-11T03:36:49.125Z,6.67
2023-11-11T03:39:06.435Z,6.59
2023-11-11T03:41:23.367Z,6.55
2023-11-11T03:43:40.406Z,6.51
2023-11-11T03:45:57.971Z,6.48
2023-11-11T03:48:15.438Z,6.47
2023-11-11T03:50:32.389Z,6.50
2023-11-11T03:52:49.350Z,6.49
2023-11-11T03:55:06.329Z,6.51
2023-11-11T03:57:23.355Z,6.53
2023-11-11T03:59:40.867Z,6.54
2023-11-11T04:01:58.141Z,6.55
2023-11-11T04:04:16.194Z,6.57
2023-11-11T04:06:34.836Z,6.66
2023-11-11T04:08:51.745Z,6.71
2023-11-11T04:11:09.026Z,6.75
2023-11-11T04:13:26.760Z,6.77
2023-11-11T04:15:44.164Z,6.81
2023-11-11T04:18:01.160Z,6.87
2023-11-11T04:20:18.229Z,6.93
2023-11-11T04:22:35.128Z,6.96
2023-11-11T04:24:52.031Z,6.94
2023-11-11T04:27:08.894Z,6.94
2023-11-11T04:29:25.852Z,6.96
2023-11-11T04:31:42.784Z,6.95
2023-11-11T04:34:00.382Z,6.98
2023-11-11T04:36:17.374Z,7.00
2023-11-11T04:38:34.587Z,7.01
2023-11-11T04:40:51.548Z,7.02
2023-11-11T04:43:08.471Z,7.02
2023-11-11T04:45:25.413Z,7.01
2023-11-11T04:47:42.413Z,7.05
2023-11-11T04:49:59.843Z,7.06
2023-11-11T04:52:16.741Z,7.06
2023-11-11T04:54:33.715Z,7.08
2023-11-11T04:56:50.694Z,7.10
2023-11-11T04:59:07.638Z,7.08
2023-11-11T05:01:24.552Z,7.10
2023-11-11T05:03:41.546Z,7.08
2023-11-11T05:05:58.503Z,7.08
2023-11-11T05:08:16.009Z,7.09
2023-11-11T05:10:32.874Z,7.09
2023-11-11T05:12:49.805Z,7.11
2023-11-11T05:15:06.695Z,7.11
2023-11-11T05:17:24.054Z,7.13
2023-11-11T05:19:41.017Z,7.14
2023-11-11T05:21:57.923Z,7.13
2023-11-11T05:24:15.242Z,7.12
2023-11-11T05:26:32.145Z,7.13
2023-11-11T05:28:49.013Z,7.16
2023-11-11T05:31:05.989Z,7.22
2023-11-11T05:33:23.508Z,7.20
2023-11-11T05:35:40.421Z,7.19
2023-11-11T05:37:57.326Z,7.21
2023-11-11T05:40:14.209Z,7.23
2023-11-11T05:42:31.194Z,7.20
2023-11-11T05:44:48.546Z,7.21
2023-11-11T05:47:05.466Z,7.16
2023-11-11T05:49:22.356Z,7.15
2023-11-11T05:51:39.287Z,7.19
2023-11-11T05:53:56.238Z,7.19
2023-11-11T05:56:13.177Z,7.14
2023-11-11T05:58:30.082Z,7.15
2023-11-11T06:00:47.091Z,7.14
2023-11-11T06:03:04.118Z,7.16
2023-11-11T06:05:21.109Z,7.19
2023-11-11T06:07:37.982Z,7.18
2023-11-11T06:09:54.975Z,7.19
2023-11-11T06:12:11.927Z,7.19
2023-11-11T06:14:28.852Z,7.19
2023-11-11T06:16:46.261Z,7.21
2023-11-11T06:19:03.210Z,7.23
2023-11-11T06:21:20.097Z,7.21
2023-11-11T06:25:56.767Z,7.13
2023-11-11T06:28:13.722Z,7.11
2023-11-11T06:30:30.665Z,7.18
2023-11-11T06:32:47.598Z,7.17
2023-11-11T06:35:04.529Z,7.24
2023-11-11T06:37:21.878Z,7.26
2023-11-11T06:39:38.806Z,7.23
2023-11-11T06:41:55.734Z,7.19
2023-11-11T06:44:12.612Z,7.11
2023-11-11T06:46:29.517Z,7.14
2023-11-11T06:48:46.560Z,7.13
2023-11-11T06:51:03.479Z,7.04
2023-11-11T06:53:20.384Z,7.08
2023-11-11T06:55:37.334Z,7.15
2023-11-11T06:57:54.759Z,7.11
2023-11-11T07:00:11.735Z,7.14
2023-11-11T07:02:28.652Z,7.17
2023-11-11T07:04:45.559Z,7.12
2023-11-11T07:07:02.454Z,7.04
2023-11-11T07:09:19.436Z,6.95
2023-11-11T07:11:36.379Z,6.91
2023-11-11T07:13:53.317Z,6.91
2023-11-11T07:16:10.255Z,6.90
2023-11-11T07:18:27.891Z,6.95
2023-11-11T07:20:44.917Z,6.90
2023-11-11T07:23:01.828Z,6.88
2023-11-11T07:25:18.737Z,6.91
2023-11-11T07:27:35.716Z,6.94
2023-11-11T07:29:52.634Z,7.01
2023-11-11T07:32:09.611Z,7.01
2023-11-11T07:34:26.472Z,7.01
2023-11-11T07:36:43.370Z,7.01
2023-11-11T07:39:00.440Z,7.02
2023-11-11T07:41:17.405Z,7.00
2023-11-11T07:43:34.287Z,6.99
2023-11-11T07:45:51.249Z,7.02
2023-11-11T07:48:08.178Z,7.03
2023-11-11T07:50:25.646Z,7.07
2023-11-11T07:52:42.523Z,7.07
2023-11-11T07:54:59.398Z,7.11
2023-11-11T07:57:16.316Z,7.13
2023-11-11T07:59:35.642Z,7.19
2023-11-11T08:01:52.547Z,7.20
2023-11-11T08:04:09.968Z,7.24
2023-11-11T08:06:27.570Z,7.22
2023-11-11T08:08:44.520Z,7.19
2023-11-11T08:11:01.645Z,7.21
2023-11-11T08:13:18.556Z,7.22
2023-11-11T08:15:35.510Z,7.24
2023-11-11T08:17:52.485Z,7.26
2023-11-11T08:20:09.411Z,7.25
2023-11-11T08:22:26.323Z,7.35
2023-11-11T08:24:43.246Z,7.40
2023-11-11T08:27:00.218Z,7.40
2023-11-11T08:29:17.103Z,7.41
2023-11-11T08:31:34.098Z,7.37
2023-11-11T08:33:51.129Z,7.30
2023-11-11T08:36:08.072Z,7.30
2023-11-11T08:38:24.967Z,7.32
2023-11-11T08:40:42.324Z,7.35
2023-11-11T08:42:59.294Z,7.39
2023-11-11T08:45:16.248Z,7.30
2023-11-11T08:47:34.251Z,7.29
2023-11-11T08:49:51.924Z,7.31
2023-11-11T08:52:08.827Z,7.35
2023-11-11T08:54:25.743Z,7.34
2023-11-11T08:56:45.102Z,7.34
2023-11-11T08:59:03.562Z,7.42
2023-11-11T09:01:20.562Z,7.40
2023-11-11T09:03:37.714Z,7.39
2023-11-11T09:05:54.733Z,7.41
2023-11-11T09:08:11.651Z,7.42
2023-11-11T09:10:28.569Z,7.43
2023-11-11T09:12:45.533Z,7.42
2023-11-11T09:15:02.543Z,7.38
2023-11-11T09:17:19.443Z,7.37
2023-11-11T09:19:36.383Z,7.32
2023-11-11T09:21:53.379Z,7.36
2023-11-11T09:24:10.334Z,7.39
2023-11-11T09:26:27.351Z,7.41
2023-11-11T09:28:44.273Z,7.42
2023-11-11T09:31:01.337Z,7.38
2023-11-11T09:33:18.350Z,7.43
2023-11-11T09:35:36.427Z,7.41
2023-11-11T09:37:54.412Z,7.47
2023-11-11T09:40:11.339Z,7.43
2023-11-11T09:42:28.229Z,7.41
2023-11-11T09:47:04.943Z,7.39
2023-11-11T09:49:22.022Z,7.45
2023-11-11T09:51:38.989Z,7.52
2023-11-11T09:53:56.021Z,7.60
2023-11-11T09:57:03.121Z,7.61
2023-11-11T09:58:49.873Z,7.73
2023-11-11T10:01:06.862Z,7.82
2023-11-11T10:03:24.045Z,7.79
2023-11-11T10:05:41.018Z,7.72
2023-11-11T10:07:58.050Z,7.72
2023-11-11T10:10:14.975Z,7.72
2023-11-11T10:12:31.950Z,7.76
2023-11-11T10:14:49.465Z,7.78
2023-11-11T10:17:06.459Z,7.95
2023-11-11T10:19:23.488Z,8.04
2023-11-11T10:21:40.442Z,8.12
2023-11-11T10:23:57.442Z,8.21
2023-11-11T10:26:14.383Z,8.39
2023-11-11T10:28:31.497Z,8.54
2023-11-11T10:30:48.643Z,8.74
2023-11-11T10:33:05.987Z,8.93
2023-11-11T10:35:23.164Z,9.01
2023-11-11T10:37:40.162Z,9.10
2023-11-11T10:39:57.185Z,9.22
2023-11-11T10:42:14.124Z,9.36
2023-11-11T10:44:31.166Z,9.52
2023-11-11T10:46:48.105Z,9.58
2023-11-11T10:49:05.013Z,9.58
2023-11-11T10:51:21.864Z,9.65
2023-11-11T10:53:38.893Z,9.78
2023-11-11T10:55:56.292Z,9.84
2023-11-11T10:58:13.261Z,9.80
2023-11-11T11:00:30.122Z,9.89
2023-11-11T11:02:47.183Z,9.91
2023-11-11T11:05:04.207Z,9.91
2023-11-11T11:07:21.207Z,9.88
2023-11-11T11:09:38.133Z,9.77
2023-11-11T11:11:55.194Z,9.75
2023-11-11T11:14:12.138Z,9.69
2023-11-11T11:16:31.490Z,9.76
2023-11-11T11:18:48.693Z,9.77
2023-11-11T11:21:05.604Z,9.80
2023-11-11T11:23:22.528Z,9.88
2023-11-11T11:25:39.454Z,10.00
2023-11-11T11:27:56.332Z,10.00
2023-11-11T11:30:13.289Z,10.08
2023-11-11T11:32:30.287Z,10.08
2023-11-11T11:34:47.749Z,10.11
2023-11-11T11:37:05.148Z,10.02
2023-11-11T11:39:22.146Z,10.13
2023-11-11T11:41:39.581Z,10.06
2023-11-11T11:43:56.791Z,10.10
2023-11-11T11:46:16.915Z,10.19
2023-11-11T11:48:35.744Z,10.26
2023-11-11T11:50:52.786Z,10.17
2023-11-11T11:55:27.256Z,10.22
2023-11-11T11:57:44.387Z,10.19
2023-11-11T12:00:01.658Z,10.26
2023-11-11T12:02:18.670Z,10.23
2023-11-11T12:04:35.671Z,10.14
2023-11-11T12:06:52.630Z,10.23
2023-11-11T12:09:09.646Z,10.16
2023-11-11T12:11:26.750Z,10.26
2023-11-11T12:13:44.314Z,10.35
2023-11-11T12:16:01.292Z,10.34
2023-11-11T12:18:18.353Z,10.45
2023-11-11T12:20:35.276Z,10.54
2023-11-11T12:22:52.205Z,10.58
2023-11-11T12:25:09.176Z,10.34
2023-11-11T12:27:26.064Z,10.24
2023-11-11T12:29:42.954Z,10.16
2023-11-11T12:31:59.866Z,10.22
2023-11-11T12:34:16.856Z,10.08
2023-11-11T12:36:33.777Z,10.10
2023-11-11T12:38:50.705Z,10.26
2023-11-11T12:41:07.614Z,10.18
2023-11-11T12:43:24.665Z,10.09
2023-11-11T12:45:41.698Z,9.97
2023-11-11T12:47:58.784Z,9.94
2023-11-11T12:50:16.364Z,9.88
2023-11-11T12:52:36.878Z,9.97
2023-11-11T12:54:53.825Z,10.05
2023-11-11T12:57:10.720Z,9.97
2023-11-11T12:59:27.620Z,9.96
2023-11-11T13:01:45.398Z,10.02
2023-11-11T13:04:02.437Z,9.94
2023-11-11T13:06:19.350Z,9.82
2023-11-11T13:08:36.536Z,9.68
2023-11-11T13:10:53.595Z,9.60
2023-11-11T13:13:10.527Z,9.62
2023-11-11T13:15:27.563Z,9.68
2023-11-11T13:17:44.919Z,9.52
2023-11-11T13:20:01.922Z,9.47
2023-11-11T13:22:18.876Z,9.32
2023-11-11T13:24:35.780Z,9.22
2023-11-11T13:26:52.746Z,9.21
2023-11-11T13:29:09.818Z,9.18
2023-11-11T13:31:26.751Z,9.20
2023-11-11T13:33:44.141Z,9.10
2023-11-11T13:36:01.132Z,9.07
2023-11-11T13:38:18.630Z,8.99
2023-11-11T13:40:35.579Z,8.90
2023-11-11T13:42:52.559Z,8.81
2023-11-11T13:45:10.004Z,8.73
2023-11-11T13:47:26.971Z,8.66
2023-11-11T13:49:43.949Z,8.56
2023-11-11T13:52:01.442Z,8.50
2023-11-11T13:54:18.407Z,8.46
2023-11-11T13:56:35.337Z,8.42
2023-11-11T13:58:52.678Z,8.36
2023-11-11T14:01:09.648Z,8.29
2023-11-11T14:03:26.780Z,8.23
2023-11-11T14:05:43.779Z,8.20
2023-11-11T14:08:00.686Z,8.17
2023-11-11T14:10:17.677Z,8.14
2023-11-11T14:12:34.651Z,8.11
2023-11-11T14:14:52.086Z,8.12
2023-11-11T14:17:09.660Z,8.08
2023-11-11T14:19:27.109Z,8.12
2023-11-11T14:21:44.448Z,8.15
2023-11-11T14:24:01.387Z,8.19
2023-11-11T14:26:18.340Z,8.20
2023-11-11T14:28:35.281Z,8.22
2023-11-11T14:30:52.255Z,8.22
2023-11-11T14:33:09.287Z,8.22
2023-11-11T14:35:26.210Z,8.18
2023-11-11T14:37:43.138Z,8.23
2023-11-11T14:40:00.050Z,8.28
2023-11-11T14:42:17.000Z,8.38
2023-11-11T14:44:33.940Z,8.45
2023-11-11T14:46:51.470Z,8.50
2023-11-11T14:49:08.376Z,8.49
2023-11-11T14:51:25.322Z,8.58
2023-11-11T14:53:42.229Z,8.53
2023-11-11T14:55:59.182Z,8.50
2023-11-11T14:58:16.131Z,8.57
2023-11-11T15:00:35.414Z,8.61
2023-11-11T15:02:55.507Z,8.60
2023-11-11T15:05:12.567Z,8.55
2023-11-11T15:07:29.527Z,8.53
2023-11-11T15:09:46.820Z,8.54
2023-11-11T15:12:03.713Z,8.52
2023-11-11T15:14:20.601Z,8.48
2023-11-11T15:16:37.597Z,8.42
2023-11-11T15:18:54.565Z,8.39
2023-11-11T15:21:11.536Z,8.33
2023-11-11T15:23:28.942Z,8.25
2023-11-11T15:25:45.913Z,8.16
2023-11-11T15:28:02.876Z,8.12
2023-11-11T15:30:19.776Z,8.07
2023-11-11T15:32:36.757Z,7.96
2023-11-11T15:34:53.815Z,7.89
2023-11-11T15:37:10.776Z,7.82
2023-11-11T15:39:28.044Z,7.77
2023-11-11T15:41:44.999Z,7.66
2023-11-11T15:44:01.968Z,7.60
2023-11-11T15:46:18.977Z,7.56
2023-11-11T15:48:36.619Z,7.45
2023-11-11T15:50:53.867Z,7.33
2023-11-11T15:53:10.807Z,7.20
2023-11-11T15:55:27.719Z,7.10
2023-11-11T15:57:44.657Z,7.04
2023-11-11T16:00:02.120Z,6.95
2023-11-11T16:02:19.228Z,6.90
2023-11-11T16:04:36.278Z,6.86
2023-11-11T16:06:53.148Z,6.80
2023-11-11T16:09:10.029Z,6.72
2023-11-11T16:11:27.425Z,6.64
2023-11-11T16:13:44.378Z,6.56
2023-11-11T16:16:01.292Z,6.49
2023-11-11T16:18:18.291Z,6.38
2023-11-11T16:20:35.316Z,6.38
2023-11-11T16:22:52.346Z,6.35
2023-11-11T16:25:09.253Z,6.31
2023-11-11T16:27:26.168Z,6.23
2023-11-11T16:29:43.072Z,6.11
2023-11-11T16:32:00.014Z,6.01
2023-11-11T16:34:16.924Z,5.97
2023-11-11T16:36:33.850Z,5.89
2023-11-11T16:38:50.789Z,5.81
2023-11-11T16:41:07.765Z,5.78
2023-11-11T16:43:24.902Z,5.71
2023-11-11T16:45:42.231Z,5.63
2023-11-11T16:47:59.208Z,5.60
2023-11-11T16:50:16.171Z,5.53
2023-11-11T16:52:33.134Z,5.46
2023-11-11T16:54:50.049Z,5.42
2023-11-11T16:57:06.974Z,5.39
2023-11-11T16:59:23.904Z,5.36
2023-11-11T17:01:40.920Z,5.30
2023-11-11T17:03:58.079Z,5.26
2023-11-11T17:06:15.500Z,5.22
2023-11-11T17:08:32.457Z,5.17
2023-11-11T17:10:49.428Z,5.13
2023-11-11T17:13:06.329Z,5.08
2023-11-11T17:15:23.235Z,5.05
2023-11-11T17:17:46.886Z,5.04
2023-11-11T17:20:04.025Z,4.98
2023-11-11T17:22:23.202Z,4.95
2023-11-11T17:24:40.425Z,4.92
2023-11-11T17:26:57.422Z,4.88
2023-11-11T17:29:20.164Z,4.81
2023-11-11T17:31:37.136Z,4.72
2023-11-11T17:33:57.279Z,4.67
2023-11-11T17:36:15.220Z,4.63
2023-11-11T17:38:32.738Z,4.61
2023-11-11T17:40:51.869Z,4.56
2023-11-11T17:43:12.463Z,4.51
2023-11-11T17:45:29.413Z,4.48
2023-11-11T17:47:46.576Z,4.45
2023-11-11T17:50:04.089Z,4.41
2023-11-11T17:52:21.272Z,4.35
2023-11-11T17:54:38.946Z,4.33
2023-11-11T17:56:55.877Z,4.33
2023-11-11T17:59:12.834Z,4.29
2023-11-11T18:01:29.804Z,4.26
2023-11-11T18:03:46.877Z,4.21
2023-11-11T18:06:03.842Z,4.16
2023-11-11T18:08:20.809Z,4.15
2023-11-11T18:10:38.403Z,4.12
2023-11-11T18:12:55.459Z,4.11
2023-11-11T18:15:12.436Z,4.06
2023-11-11T18:17:29.379Z,4.02
2023-11-11T18:19:46.344Z,4.01
2023-11-11T18:22:03.269Z,4.00
2023-11-11T18:24:20.184Z,4.00
2023-11-11T18:26:37.226Z,3.95
2023-11-11T18:28:54.268Z,3.89
2023-11-11T18:31:12.336Z,3.84
2023-11-11T18:33:29.281Z,3.82
2023-11-11T18:35:46.195Z,3.77
2023-11-11T18:38:03.121Z,3.75
2023-11-11T18:40:20.077Z,3.74
2023-11-11T18:42:36.982Z,3.70
2023-11-11T18:44:53.924Z,3.70
2023-11-11T18:47:10.894Z,3.67
2023-11-11T18:49:27.826Z,3.63
2023-11-11T18:51:44.726Z,3.59
2023-11-11T18:54:01.717Z,3.57
2023-11-11T18:56:18.620Z,3.51
2023-11-11T18:58:35.562Z,3.50
2023-11-11T19:00:52.509Z,3.46
2023-11-11T19:03:09.530Z,3.45
2023-11-11T19:05:26.538Z,3.42
2023-11-11T19:07:43.531Z,3.39
2023-11-11T19:10:00.490Z,3.32
2023-11-11T19:12:17.513Z,3.31
2023-11-11T19:14:34.394Z,3.27
2023-11-11T19:16:51.902Z,3.27
2023-11-11T19:19:09.363Z,3.25
2023-11-11T19:21:26.263Z,3.24
2023-11-11T19:23:43.280Z,3.22
2023-11-11T19:26:00.297Z,3.14
2023-11-11T19:28:17.254Z,3.10
2023-11-11T19:30:34.148Z,3.07
2023-11-11T19:32:51.151Z,3.03
2023-11-11T19:35:08.218Z,3.03
2023-11-11T19:37:25.186Z,3.05
2023-11-11T19:39:42.592Z,2.99
2023-11-11T19:41:59.514Z,2.98
2023-11-11T19:44:17.038Z,2.97
2023-11-11T19:46:34.037Z,2.95
2023-11-11T19:48:50.942Z,2.94
2023-11-11T19:51:07.986Z,2.96
2023-11-11T19:53:25.003Z,2.96
2023-11-11T19:55:42.370Z,2.94
2023-11-11T19:57:59.434Z,2.93
2023-11-11T20:00:16.391Z,2.89
2023-11-11T20:02:33.457Z,2.89
2023-11-11T20:04:50.492Z,2.85
2023-11-11T20:07:07.470Z,2.82
2023-11-11T20:09:24.562Z,2.80
2023-11-11T20:11:41.772Z,2.76
2023-11-11T20:13:58.726Z,2.74
2023-11-11T20:16:16.763Z,2.67
2023-11-11T20:18:33.728Z,2.60
2023-11-11T20:20:50.729Z,2.57
2023-11-11T20:23:07.681Z,2.55
2023-11-11T20:25:24.647Z,2.56
2023-11-11T20:27:41.607Z,2.57
2023-11-11T20:29:58.597Z,2.54
2023-11-11T20:32:16.193Z,2.53
2023-11-11T20:34:33.272Z,2.47
2023-11-11T20:36:50.665Z,2.45
2023-11-11T20:39:07.640Z,2.44
2023-11-11T20:41:24.608Z,2.41
2023-11-11T20:43:41.559Z,2.37
2023-11-11T20:45:58.809Z,2.36
2023-11-11T20:48:15.978Z,2.33
2023-11-11T20:50:32.950Z,2.27
2023-11-11T20:52:49.849Z,2.25
2023-11-11T20:55:06.819Z,2.27
2023-11-11T20:57:23.826Z,2.25
2023-11-11T20:59:41.245Z,2.25
2023-11-11T21:01:58.417Z,2.25
2023-11-11T21:04:15.441Z,2.22
2023-11-11T21:06:32.645Z,2.16
2023-11-11T21:08:50.809Z,2.11
2023-11-11T21:11:07.986Z,2.10
2023-11-11T21:13:24.945Z,2.06
2023-11-11T21:15:41.890Z,2.06
2023-11-11T21:18:00.297Z,2.05
2023-11-11T21:20:18.700Z,2.04
2023-11-11T21:22:35.670Z,2.05
2023-11-11T21:24:52.596Z,2.00
2023-11-11T21:27:09.542Z,1.95
2023-11-11T21:29:26.468Z,1.94
2023-11-11T21:31:43.429Z,1.91
2023-11-11T21:34:00.443Z,1.90
2023-11-11T21:36:17.434Z,1.94
2023-11-11T21:38:35.007Z,1.94
2023-11-11T21:40:52.983Z,1.94
2023-11-11T21:43:09.920Z,1.90
2023-11-11T21:45:26.851Z,1.88
2023-11-11T21:47:45.070Z,1.89
2023-11-11T21:50:03.343Z,1.83
2023-11-11T21:52:20.495Z,1.79
2023-11-11T21:54:37.412Z,1.74
2023-11-11T21:56:54.312Z,1.70
2023-11-11T21:59:11.930Z,1.70
2023-11-11T22:01:29.124Z,1.70
2023-11-11T22:03:46.169Z,1.69
2023-11-11T22:06:03.271Z,1.69
2023-11-11T22:08:20.729Z,1.67
2023-11-11T22:10:37.732Z,1.65
2023-11-11T22:12:55.693Z,1.62
2023-11-11T22:15:12.647Z,1.59
2023-11-11T22:17:30.149Z,1.54
2023-11-11T22:19:47.251Z,1.50
2023-11-11T22:22:04.183Z,1.52
2023-11-11T22:24:21.131Z,1.54
2023-11-11T22:26:38.171Z,1.53
2023-11-11T22:28:55.220Z,1.51
2023-11-11T22:31:12.239Z,1.48
2023-11-11T22:33:29.730Z,1.44
2023-11-11T22:35:46.690Z,1.44
2023-11-11T22:38:03.715Z,1.45
2023-11-11T22:40:20.722Z,1.42
2023-11-11T22:42:38.213Z,1.39
2023-11-11T22:44:55.206Z,1.38
2023-11-11T22:47:12.212Z,1.37
2023-11-11T22:49:29.115Z,1.42
2023-11-11T22:51:46.028Z,1.42
2023-11-11T22:54:02.941Z,1.41
2023-11-11T22:56:19.953Z,1.44
2023-11-11T22:58:37.919Z,1.42
2023-11-11T23:00:54.852Z,1.41
2023-11-11T23:03:12.386Z,1.41
2023-11-11T23:05:29.575Z,1.44
2023-11-11T23:07:46.683Z,1.42
2023-11-11T23:10:03.589Z,1.46
2023-11-11T23:12:20.481Z,1.52
2023-11-11T23:14:37.430Z,1.54
2023-11-11T23:16:54.509Z,1.54
2023-11-11T23:19:11.511Z,1.55
2023-11-11T23:21:28.495Z,1.58
2023-11-11T23:23:45.424Z,1.59
2023-11-11T23:26:02.650Z,1.60
2023-11-11T23:28:19.718Z,1.70
2023-11-11T23:30:36.694Z,1.64
2023-11-11T23:32:53.859Z,1.62
2023-11-11T23:35:10.807Z,1.60
2023-11-11T23:37:27.738Z,1.56
2023-11-11T23:39:45.222Z,1.54
2023-11-11T23:42:02.144Z,1.52
2023-11-11T23:44:22.973Z,1.54
2023-11-11T23:46:39.975Z,1.59
2023-11-11T23:48:56.933Z,1.63
2023-11-11T23:51:13.826Z,1.75
2023-11-11T23:53:30.703Z,1.71
2023-11-11T23:55:47.802Z,1.75
2023-11-11T23:58:04.687Z,1.73
